Time;durP1;ratioP1;P1;durP2;ratioP2;P2;SDS_P1;SDS_P2;PMS_P1;PMS_P2;Temp;Humidity;BMP_temperature;BMP_pressure;BME280_temperature;BME280_humidity;BME280_pressure;Samples;Min_cycle;Max_cycle;Signal;HPM_P1;HPM_P2
2022/04/10 00:02:10;;;;;;;;;18.00;16.25;;;;;10.04;49.17;101658.03;4995458;27;45555;-74
2022/04/10 00:04:35;;;;;;;;;15.25;15.00;;;;;9.99;48.80;101642.22;4995253;27;45438;-73
2022/04/10 00:07:01;;;;;;;;;16.50;16.25;;;;;9.93;48.92;101634.25;4992308;27;45477;-74
2022/04/10 00:09:26;;;;;;;;;18.25;16.50;;;;;9.97;49.26;101646.53;4990400;28;45555;-74
2022/04/10 00:11:52;;;;;;;;;18.50;16.75;;;;;10.01;49.31;101650.97;4995159;28;45455;-73
2022/04/10 00:14:17;;;;;;;;;20.50;16.75;;;;;10.02;49.06;101652.75;4999757;27;45405;-73
2022/04/10 00:16:43;;;;;;;;;20.50;17.25;;;;;9.86;49.47;101614.94;4999757;27;45212;-73
2022/04/10 00:19:09;;;;;;;;;16.75;14.25;;;;;9.83;49.06;101608.78;4990837;28;45271;-73
2022/04/10 00:21:34;;;;;;;;;17.75;14.25;;;;;9.93;48.90;101629.00;4980331;28;45484;-73
2022/04/10 00:24:00;;;;;;;;;16.50;14.25;;;;;9.99;49.07;101634.38;4980356;28;45245;-73
2022/04/10 00:26:26;;;;;;;;;22.50;17.25;;;;;9.87;48.96;101623.66;4980866;28;45231;-73
2022/04/10 00:28:51;;;;;;;;;20.75;19.25;;;;;9.82;49.39;101623.56;4980943;28;45198;-72
2022/04/10 00:31:20;;;;;;;;;14.75;13.75;;;;;9.74;49.47;101617.31;4981891;28;45445;-72
2022/04/10 00:33:46;;;;;;;;;24.75;18.25;;;;;9.76;49.22;101626.94;4996191;27;45438;-73
2022/04/10 00:36:12;;;;;;;;;19.00;16.75;;;;;9.64;49.30;101600.56;4982618;27;45355;-73
2022/04/10 00:38:41;;;;;;;;;22.50;19.50;;;;;9.69;49.63;101618.97;4992831;27;45464;-72
2022/04/10 00:41:07;;;;;;;;;15.25;15.25;;;;;9.78;49.54;101637.47;4996641;27;45484;-72
2022/04/10 00:43:34;;;;;;;;;21.75;18.50;;;;;9.63;49.44;101603.13;4995177;27;46053;-74
2022/04/10 00:46:00;;;;;;;;;16.75;13.50;;;;;9.76;49.34;101632.19;5007268;28;45868;-73
2022/04/10 00:48:27;;;;;;;;;16.50;16.50;;;;;9.75;49.37;101629.53;5003935;27;45466;-73
2022/04/10 00:53:39;;;;;;;;;14.00;13.75;;;;;9.55;49.40;101600.38;4994990;27;45619;-73
2022/04/10 00:56:05;;;;;;;;;13.25;12.50;;;;;9.75;49.58;101634.75;4995197;27;45503;-73
2022/04/10 00:58:32;;;;;;;;;15.25;15.25;;;;;9.60;49.27;101608.31;4995057;28;45468;-71
2022/04/10 01:00:58;;;;;;;;;16.25;14.25;;;;;9.70;49.87;101626.81;4996861;27;45416;-73
2022/04/10 01:03:24;;;;;;;;;13.00;11.25;;;;;9.23;48.45;101550.94;5014215;27;45576;-74
2022/04/10 01:05:50;;;;;;;;;10.50;10.25;;;;;9.72;48.49;101621.63;5015042;27;45432;-73
2022/04/10 01:08:16;;;;;;;;;10.75;8.25;;;;;9.61;49.13;101612.69;5002392;27;45421;-73
2022/04/10 01:10:43;;;;;;;;;7.75;6.50;;;;;9.63;47.86;101616.22;5008701;27;45468;-72
2022/04/10 01:13:09;;;;;;;;;11.25;8.00;;;;;9.53;47.39;101596.84;5003156;27;45407;-73
2022/04/10 01:15:36;;;;;;;;;9.75;6.75;;;;;9.40;48.11;101585.25;4994618;27;45523;-74
2022/04/10 01:18:04;;;;;;;;;15.25;13.25;;;;;9.68;48.67;101630.25;4996562;27;45428;-72
2022/04/10 01:20:31;;;;;;;;;18.00;15.75;;;;;9.60;48.98;101637.97;5011951;27;45441;-72
2022/04/10 01:22:58;;;;;;;;;19.00;16.50;;;;;9.31;49.71;101601.63;4994483;27;46581;-73
2022/04/10 01:25:23;;;;;;;;;23.25;19.50;;;;;8.90;49.89;101549.38;4994326;27;45337;-72
2022/04/10 01:27:50;;;;;;;;;22.50;19.00;;;;;9.42;50.41;101640.19;5011403;27;45537;-73
2022/04/10 01:30:16;;;;;;;;;24.50;22.75;;;;;9.09;50.60;101604.66;4994669;27;45475;-73
2022/04/10 01:32:41;;;;;;;;;28.75;22.50;;;;;9.30;50.95;101633.88;5013401;27;45473;-73
2022/04/10 01:35:09;;;;;;;;;25.25;22.00;;;;;8.84;51.23;101551.84;4996049;28;45370;-73
2022/04/10 01:37:35;;;;;;;;;24.75;19.25;;;;;9.35;51.24;101633.97;5000909;27;45315;-74
2022/04/10 01:40:01;;;;;;;;;27.00;19.00;;;;;9.40;51.45;101636.69;4995208;28;45248;-74
2022/04/10 01:42:28;;;;;;;;;20.25;18.25;;;;;9.40;51.57;101629.72;5009321;27;45449;-73
2022/04/10 01:44:54;;;;;;;;;20.50;16.25;;;;;9.42;51.37;101628.03;4996111;28;45358;-72
2022/04/10 01:47:20;;;;;;;;;26.00;21.25;;;;;9.19;51.64;101604.00;5000236;27;45382;-72
2022/04/10 01:49:46;;;;;;;;;17.75;17.25;;;;;9.40;51.43;101636.69;5006486;27;45444;-73
2022/04/10 01:52:11;;;;;;;;;20.25;18.75;;;;;9.34;51.25;101617.38;4994493;28;45985;-73
2022/04/10 01:54:37;;;;;;;;;24.00;19.75;;;;;9.21;51.03;101589.22;4994241;27;45353;-73
2022/04/10 01:57:03;;;;;;;;;20.50;15.75;;;;;9.34;51.08;101616.50;4994249;28;45454;-73
2022/04/10 01:59:29;;;;;;;;;18.50;18.50;;;;;9.23;50.95;101610.16;4994506;28;45462;-72
2022/04/10 02:01:55;;;;;;;;;21.00;20.25;;;;;9.14;50.56;101589.94;5000956;27;45571;-74
2022/04/10 02:04:20;;;;;;;;;17.50;16.50;;;;;9.32;50.94;101610.34;4999863;27;45485;-73
2022/04/10 02:06:46;;;;;;;;;18.25;17.50;;;;;9.29;50.87;101608.56;4999938;27;45394;-72
2022/04/10 02:09:12;;;;;;;;;18.00;14.00;;;;;9.27;50.68;101619.84;4998125;27;45380;-73
2022/04/10 02:11:37;;;;;;;;;25.00;19.00;;;;;9.15;50.55;101606.50;4998447;28;45958;-72
2022/04/10 02:14:03;;;;;;;;;23.25;18.75;;;;;9.14;51.06;101613.47;5011847;27;45365;-72
2022/04/10 02:16:29;;;;;;;;;24.00;21.50;;;;;8.94;51.06;101596.47;5013077;27;45426;-72
2022/04/10 02:18:54;;;;;;;;;23.25;18.50;;;;;9.03;51.27;101621.06;5015804;27;45429;-72
2022/04/10 02:21:20;;;;;;;;;21.00;17.50;;;;;8.93;51.54;101613.00;5016156;27;46075;-72
2022/04/10 02:23:48;;;;;;;;;25.50;21.50;;;;;8.83;51.57;101611.91;5010029;27;45421;-72
2022/04/10 02:26:14;;;;;;;;;21.75;21.00;;;;;8.90;51.73;101625.13;4975714;28;45362;-72
2022/04/10 02:28:41;;;;;;;;;28.75;24.25;;;;;8.87;52.07;101625.06;4973155;27;45491;-72
2022/04/10 02:31:07;;;;;;;;;22.00;20.00;;;;;8.75;52.38;101608.22;4996598;27;46058;-72
2022/04/10 02:33:33;;;;;;;;;22.00;20.50;;;;;8.49;52.58;101567.59;4979207;27;45230;-72
2022/04/10 02:35:59;;;;;;;;;24.00;23.50;;;;;8.62;52.11;101589.66;4997146;27;45401;-72
2022/04/10 02:38:25;;;;;;;;;22.75;22.75;;;;;8.83;52.29;101627.56;4994738;27;45538;-73
2022/04/10 02:40:51;;;;;;;;;24.25;22.00;;;;;8.82;52.35;101634.50;5004626;27;46075;-73
2022/04/10 02:43:17;;;;;;;;;24.75;23.00;;;;;8.55;52.60;101585.13;4996577;27;45435;-73
2022/04/10 02:45:43;;;;;;;;;24.75;21.25;;;;;8.69;52.46;101619.41;5013441;27;45724;-73
2022/04/10 02:48:10;;;;;;;;;21.50;21.50;;;;;8.21;52.76;101541.63;4997777;27;45374;-72
2022/04/10 02:50:39;;;;;;;;;25.00;23.25;;;;;8.70;52.64;101626.38;5015148;27;45399;-72
2022/04/10 02:53:06;;;;;;;;;28.75;26.25;;;;;8.75;53.09;101636.94;5015004;27;45692;-72
2022/04/10 02:55:32;;;;;;;;;28.25;27.00;;;;;8.47;53.24;101594.47;5014580;27;45529;-73
2022/04/10 02:57:58;;;;;;;;;27.25;27.00;;;;;7.87;53.36;101499.03;5015622;27;45945;-73
2022/04/10 03:00:23;;;;;;;;;27.50;23.25;;;;;8.59;53.39;101612.19;4996609;27;45844;-72
2022/04/10 03:02:49;;;;;;;;;26.50;23.75;;;;;8.56;53.42;101614.72;4997064;27;46702;-72
2022/04/10 03:05:16;;;;;;;;;24.75;24.75;;;;;8.37;53.68;101601.19;4978841;28;45325;-73
2022/04/10 03:07:41;;;;;;;;;37.00;32.25;;;;;8.10;53.87;101563.97;4996725;27;45330;-72
2022/04/10 03:10:07;;;;;;;;;39.00;30.50;;;;;8.35;53.94;101621.16;4997492;27;46090;-73
2022/04/10 03:12:33;;;;;;;;;32.50;30.50;;;;;8.36;54.72;101637.72;4979210;28;45327;-74
2022/04/10 03:14:59;;;;;;;;;39.50;32.00;;;;;8.17;54.13;101612.84;5012665;27;45173;-73
2022/04/10 03:17:25;;;;;;;;;36.00;31.50;;;;;7.82;54.63;101578.91;4998675;27;45307;-72
2022/04/10 03:19:51;;;;;;;;;33.75;30.25;;;;;8.05;55.21;101626.47;4998406;27;45330;-73
2022/04/10 03:22:17;;;;;;;;;36.25;31.00;;;;;7.71;55.14;101577.72;5011637;27;45407;-73
2022/04/10 03:24:43;;;;;;;;;39.75;32.75;;;;;7.93;54.87;101634.84;5017411;28;45493;-73
2022/04/10 03:27:08;;;;;;;;;39.50;34.00;;;;;7.91;55.42;101651.31;5016486;27;45452;-74
2022/04/10 03:29:34;;;;;;;;;41.75;34.75;;;;;7.84;55.86;101645.91;5004488;27;45769;-73
2022/04/10 03:32:00;;;;;;;;;45.50;37.25;;;;;7.54;56.17;101611.16;4996459;27;45313;-72
2022/04/10 03:34:25;;;;;;;;;41.75;37.75;;;;;7.65;56.34;101639.28;5003733;27;45509;-72
2022/04/10 03:36:51;;;;;;;;;41.75;35.00;;;;;7.69;56.84;101655.91;5018104;27;45555;-72
2022/04/10 03:39:20;;;;;;;;;46.75;39.75;;;;;7.31;56.71;101600.97;5011082;27;46444;-74
2022/04/10 03:41:45;;;;;;;;;41.50;36.75;;;;;7.34;56.81;101615.78;4998615;27;45555;-74
2022/04/10 03:44:11;;;;;;;;;51.75;41.50;;;;;7.54;57.20;101655.47;5000315;27;45405;-73
2022/04/10 03:46:36;;;;;;;;;42.00;35.75;;;;;7.43;57.71;101637.78;5013468;27;45364;-73
2022/04/10 03:49:02;;;;;;;;;45.00;36.75;;;;;7.38;57.68;101635.88;5017837;28;45382;-74
2022/04/10 03:51:29;;;;;;;;;45.75;35.50;;;;;7.49;57.52;101654.44;5005565;27;45369;-73
2022/04/10 03:53:54;;;;;;;;;45.25;37.75;;;;;7.25;57.90;101623.34;5008812;27;45411;-72
2022/04/10 03:56:20;;;;;;;;;43.25;37.50;;;;;7.24;58.30;101622.47;5017256;28;45386;-72
2022/04/10 03:58:46;;;;;;;;;45.50;38.00;;;;;7.14;58.21;101607.38;5017130;27;46470;-73
2022/04/10 04:01:12;;;;;;;;;42.75;37.00;;;;;6.89;58.42;101570.19;5016781;27;45420;-72
2022/04/10 04:03:37;;;;;;;;;43.75;34.75;;;;;7.36;58.57;101654.09;5019340;27;45452;-72
2022/04/10 04:06:03;;;;;;;;;41.50;35.00;;;;;7.34;58.68;101652.28;5016289;27;45457;-74
2022/04/10 04:08:28;;;;;;;;;48.50;39.75;;;;;7.32;58.58;101659.16;5012394;27;45374;-73
2022/04/10 04:10:54;;;;;;;;;40.50;35.00;;;;;6.99;58.58;101594.78;4995630;27;45540;-73
2022/04/10 04:13:20;;;;;;;;;44.00;36.25;;;;;7.23;58.40;101642.41;4995977;27;45580;-73
2022/04/10 04:15:45;;;;;;;;;44.75;39.25;;;;;7.21;58.10;101638.88;5001400;27;45332;-73
2022/04/10 04:18:11;;;;;;;;;47.50;37.00;;;;;7.21;57.71;101644.09;5013325;27;46388;-73
2022/04/10 04:20:37;;;;;;;;;41.25;34.75;;;;;7.10;58.22;101632.47;4988518;27;45479;-72
2022/04/10 04:23:03;;;;;;;;;34.75;32.00;;;;;7.14;57.73;101649.06;4977691;28;45267;-72
2022/04/10 04:25:28;;;;;;;;;44.50;36.00;;;;;7.07;57.92;101648.00;4980468;27;45555;-73
2022/04/10 04:27:54;;;;;;;;;36.50;33.00;;;;;6.67;57.95;101599.88;4994683;27;45543;-72
2022/04/10 04:30:19;;;;;;;;;43.75;35.00;;;;;6.94;58.12;101653.66;4990784;27;45559;-73
2022/04/10 04:32:55;;;;;;;;;12.00;9.00;;;;;6.85;58.16;101650.75;4996041;27;46392;-73
2022/04/10 04:35:22;;;;;;;;;44.25;36.00;;;;;6.88;58.75;101666.47;4995198;27;45534;-73
2022/04/10 04:37:47;;;;;;;;;42.00;34.25;;;;;6.68;58.39;101642.41;5002202;27;46550;-72
2022/04/10 04:40:15;;;;;;;;;41.00;33.00;;;;;6.87;58.31;101669.94;4997033;27;45457;-72
2022/04/10 04:42:41;;;;;;;;;43.75;35.25;;;;;6.84;58.80;101667.22;4987734;27;45578;-72
2022/04/10 04:45:07;;;;;;;;;42.75;36.25;;;;;6.86;58.31;101679.47;4988989;27;45591;-72
2022/04/10 04:47:33;;;;;;;;;45.00;38.00;;;;;6.59;58.90;101632.56;4994070;27;46644;-72
2022/04/10 04:49:59;;;;;;;;;40.50;34.00;;;;;6.82;58.51;101684.53;5002358;27;45474;-73
2022/04/10 04:52:28;;;;;;;;;38.75;32.50;;;;;6.82;58.97;101689.72;4973987;28;45520;-73
2022/04/10 04:54:53;;;;;;;;;37.50;32.50;;;;;6.45;58.95;101619.09;5007160;27;45282;-73
2022/04/10 04:57:19;;;;;;;;;39.50;34.00;;;;;6.94;58.28;101691.00;4988745;27;47270;-73
2022/04/10 04:59:44;;;;;;;;;37.50;32.25;;;;;7.01;58.08;101700.78;4994167;27;46098;-73
2022/04/10 05:02:11;;;;;;;;;35.00;31.75;;;;;6.99;58.52;101692.03;4990102;28;45315;-72
2022/04/10 05:04:43;;;;;;;;;40.25;34.75;;;;;6.66;58.26;101637.13;5002145;27;45478;-74
2022/04/10 05:07:09;;;;;;;;;35.75;32.00;;;;;6.95;58.61;101687.56;4975290;28;46019;-73
2022/04/10 05:09:34;;;;;;;;;38.00;31.75;;;;;7.05;58.10;101691.34;5001160;27;45273;-71
2022/04/10 05:12:01;;;;;;;;;36.00;32.00;;;;;7.05;57.76;101696.56;4984060;27;45939;-73
2022/04/10 05:14:26;;;;;;;;;33.50;31.50;;;;;6.85;58.03;101658.56;4995078;27;45591;-73
2022/04/10 05:16:52;;;;;;;;;37.25;32.00;;;;;7.02;58.10;101701.66;4988379;28;46165;-72
2022/04/10 05:19:19;;;;;;;;;36.50;30.25;;;;;7.05;58.74;101695.66;5004627;27;45449;-72
2022/04/10 05:21:45;;;;;;;;;41.25;34.75;;;;;6.34;58.71;101578.84;4994930;27;45457;-72
2022/04/10 05:24:11;;;;;;;;;38.25;33.75;;;;;7.07;58.43;101702.72;4995044;27;45457;-74
2022/04/10 05:26:37;;;;;;;;;37.00;32.00;;;;;6.92;58.16;101668.34;4977596;27;45634;-73
2022/04/10 05:29:03;;;;;;;;;40.75;33.50;;;;;6.90;58.30;101657.88;5006755;27;45277;-72
2022/04/10 05:31:29;;;;;;;;;34.25;32.00;;;;;6.68;58.70;101611.16;5013760;27;45421;-73
2022/04/10 05:33:54;;;;;;;;;42.25;35.00;;;;;6.92;58.12;101655.31;5009405;27;45559;-72
2022/04/10 05:36:20;;;;;;;;;37.75;35.75;;;;;7.16;58.14;101687.34;4994159;27;45393;-72
2022/04/10 05:38:46;;;;;;;;;36.25;32.00;;;;;7.04;58.02;101667.84;4976861;27;45460;-73
2022/04/10 05:41:14;;;;;;;;;39.75;35.25;;;;;7.03;58.45;101655.69;4994327;27;45845;-72
2022/04/10 05:43:40;;;;;;;;;37.50;33.00;;;;;7.41;58.43;101725.47;4994598;27;45360;-74
2022/04/10 05:46:06;;;;;;;;;39.50;32.50;;;;;7.38;58.03;101698.41;4994785;28;46735;-74
2022/04/10 05:48:32;;;;;;;;;37.25;32.25;;;;;7.50;57.71;101722.28;4994255;27;45446;-74
2022/04/10 05:50:57;;;;;;;;;35.75;32.50;;;;;7.55;57.51;101725.91;4993593;27;45495;-74
2022/04/10 05:53:26;;;;;;;;;37.75;33.50;;;;;7.59;57.09;101729.47;4992686;27;45455;-72
2022/04/10 05:55:55;;;;;;;;;38.00;32.75;;;;;7.28;57.01;101665.13;4994026;27;45497;-73
2022/04/10 05:58:24;;;;;;;;;39.50;33.75;;;;;7.63;57.02;101721.78;4992224;27;45795;-73
2022/04/10 06:00:50;;;;;;;;;41.50;34.50;;;;;7.61;57.09;101723.47;4976223;27;45547;-72
2022/04/10 06:03:15;;;;;;;;;39.50;33.00;;;;;7.63;56.78;101731.34;4995807;27;45585;-73
2022/04/10 06:05:45;;;;;;;;;47.50;37.75;;;;;7.58;57.07;101710.34;4990567;27;45589;-72
2022/04/10 06:08:41;;;;;;;;;36.50;32.50;;;;;7.46;56.90;101696.06;4993491;27;45544;-73
2022/04/10 06:11:14;;;;;;;;;40.75;33.25;;;;;7.47;56.63;101696.09;4992270;27;45309;-72
2022/04/10 06:13:46;;;;;;;;;44.50;33.75;;;;;7.73;56.78;101727.28;4993684;27;45514;-73
2022/04/10 06:16:12;;;;;;;;;44.50;36.00;;;;;7.77;56.59;101732.63;4993327;27;46157;-72
2022/04/10 06:18:38;;;;;;;;;46.25;36.75;;;;;7.06;56.39;101599.34;4974675;28;45537;-71
2022/04/10 06:21:03;;;;;;;;;43.25;33.75;;;;;7.93;56.75;101738.31;4995078;28;45446;-73
2022/04/10 06:23:29;;;;;;;;;41.75;35.50;;;;;7.98;56.21;101740.19;4994585;27;45453;-72
2022/04/10 06:25:55;;;;;;;;;42.25;36.25;;;;;8.03;56.31;101732.50;5012772;27;46419;-73
2022/04/10 06:28:20;;;;;;;;;44.75;35.50;;;;;8.09;55.89;101745.72;4993606;27;45310;-73
2022/04/10 06:30:46;;;;;;;;;43.00;35.50;;;;;8.15;55.82;101737.19;5012828;27;45583;-73
2022/04/10 06:33:14;;;;;;;;;45.50;37.50;;;;;8.16;55.51;101726.81;4992984;27;45420;-73
2022/04/10 06:35:39;;;;;;;;;40.75;35.00;;;;;8.20;55.36;101735.59;4993608;27;46253;-73
2022/04/10 06:38:06;;;;;;;;;49.00;35.50;;;;;8.29;55.37;101730.63;5000856;27;45495;-73
2022/04/10 06:40:31;;;;;;;;;38.25;33.75;;;;;8.25;54.87;101716.59;5012891;27;45397;-74
2022/04/10 06:42:58;;;;;;;;;44.00;35.00;;;;;8.30;54.83;101721.94;5011939;27;45584;-72
2022/04/10 06:45:23;;;;;;;;;42.50;36.00;;;;;8.20;54.10;101717.31;4998605;27;45722;-73
2022/04/10 06:47:49;;;;;;;;;44.00;35.25;;;;;8.31;54.25;101739.38;5011412;27;45322;-73
2022/04/10 06:50:14;;;;;;;;;31.75;29.25;;;;;8.33;54.23;101735.09;4996842;27;45459;-73
2022/04/10 06:52:40;;;;;;;;;45.00;37.75;;;;;8.37;54.50;101736.03;5006312;27;45393;-72
2022/04/10 06:55:06;;;;;;;;;47.75;38.50;;;;;8.26;54.73;101713.16;5012721;27;45277;-72
2022/04/10 06:57:32;;;;;;;;;47.25;38.75;;;;;8.42;53.98;101734.47;5013115;27;45372;-73
2022/04/10 06:59:58;;;;;;;;;48.00;39.25;;;;;8.09;53.49;101688.31;4995761;27;45402;-73
2022/04/10 07:02:23;;;;;;;;;48.75;38.50;;;;;8.44;53.77;101736.28;4997407;27;45575;-73
2022/04/10 07:04:49;;;;;;;;;46.25;38.50;;;;;8.47;53.90;101740.69;5007618;27;45357;-73
2022/04/10 07:07:14;;;;;;;;;45.75;37.25;;;;;8.56;53.63;101745.28;5021688;27;45252;-73
2022/04/10 07:09:41;;;;;;;;;46.00;38.00;;;;;8.62;53.66;101735.00;5017423;27;45367;-72
2022/04/10 07:12:07;;;;;;;;;46.75;39.00;;;;;8.69;52.88;101740.44;5011878;27;45606;-72
2022/04/10 07:14:33;;;;;;;;;46.25;39.00;;;;;8.02;53.03;101614.22;5004335;27;48008;-72
2022/04/10 07:16:58;;;;;;;;;49.00;40.25;;;;;8.66;52.97;101713.34;5022196;27;45557;-72
2022/04/10 07:19:24;;;;;;;;;47.75;36.50;;;;;8.68;52.85;101709.03;5010988;27;45349;-73
2022/04/10 07:24:34;;;;;;;;;44.25;36.50;;;;;8.87;52.44;101736.50;4994215;27;45405;-73
2022/04/10 07:27:01;;;;;;;;;43.75;38.00;;;;;8.91;52.49;101736.63;5007901;28;45426;-73
2022/04/10 07:29:27;;;;;;;;;51.00;42.00;;;;;8.96;52.46;101741.09;4980607;28;45555;-73
2022/04/10 07:32:22;;;;;;;;;42.75;37.25;;;;;8.74;52.80;101687.44;5072116;28;45426;-71
2022/04/10 07:34:48;;;;;;;;;47.50;37.50;;;;;9.13;52.82;101737.13;5041576;28;45382;-71
2022/04/10 07:37:14;;;;;;;;;51.25;39.75;;;;;9.23;52.69;101736.53;5035327;28;45408;-70
2022/04/10 07:39:41;;;;;;;;;41.00;37.25;;;;;9.17;52.67;101728.53;5044589;28;45649;-72
2022/04/10 07:42:10;;;;;;;;;42.50;37.25;;;;;9.36;52.14;101749.88;5033823;28;45604;-70
2022/04/10 07:44:37;;;;;;;;;45.50;36.75;;;;;9.05;51.77;101687.31;5038494;28;45477;-71
2022/04/10 07:49:48;;;;;;;;;43.00;33.25;;;;;9.37;51.11;101715.03;5052233;28;45257;-71
2022/04/10 07:52:20;;;;;;;;;37.50;33.75;;;;;9.45;50.75;101740.50;5053433;28;46051;-70
2022/04/10 07:54:48;;;;;;;;;39.00;34.50;;;;;9.50;50.98;101744.13;5052906;28;45426;-71
2022/04/10 07:57:16;;;;;;;;;41.75;34.00;;;;;8.80;50.66;101620.53;5053356;28;45382;-71
2022/04/10 07:59:43;;;;;;;;;46.00;38.75;;;;;9.20;51.44;101686.78;5048337;28;45271;-71
2022/04/10 08:02:09;;;;;;;;;46.25;41.25;;;;;9.12;50.76;101654.38;5033338;28;45525;-70
2022/04/10 08:04:35;;;;;;;;;47.25;38.00;;;;;9.67;50.42;101748.84;5052273;28;45660;-70
2022/04/10 08:07:02;;;;;;;;;33.75;33.75;;;;;9.45;50.29;101692.56;5053157;28;45456;-71
2022/04/10 08:09:28;;;;;;;;;31.00;29.50;;;;;9.13;49.53;101640.44;5052952;28;45460;-71
2022/04/10 08:11:54;;;;;;;;;36.25;31.25;;;;;9.80;48.74;101747.34;5047839;28;47099;-71
2022/04/10 08:14:20;;;;;;;;;30.50;28.00;;;;;9.59;48.99;101701.59;5034918;28;45450;-71
2022/04/10 08:16:46;;;;;;;;;30.25;30.00;;;;;9.55;48.50;101694.53;5053122;28;45335;-71
2022/04/10 08:19:12;;;;;;;;;13.50;11.00;;;;;9.77;46.61;101743.84;5051496;28;45440;-71
2022/04/10 08:21:37;;;;;;;;;19.75;15.25;;;;;9.77;46.73;101741.22;5052479;28;45907;-70
2022/04/10 08:24:04;;;;;;;;;30.00;22.50;;;;;9.80;46.64;101736.88;5052368;28;45434;-71
2022/04/10 08:26:30;;;;;;;;;23.25;19.50;;;;;9.69;45.88;101723.59;5052610;28;45481;-71
2022/04/10 08:28:56;;;;;;;;;16.25;14.75;;;;;9.80;45.14;101729.03;5051309;28;45473;-70
2022/04/10 08:31:21;;;;;;;;;15.25;15.00;;;;;9.87;45.77;101739.69;5041269;28;45602;-71
2022/04/10 08:33:51;;;;;;;;;18.00;17.25;;;;;9.94;44.81;101741.59;5032899;28;45447;-70
2022/04/10 08:36:16;;;;;;;;;16.75;13.75;;;;;9.94;44.95;101738.06;5032768;28;45447;-70
2022/04/10 08:38:42;;;;;;;;;21.25;19.00;;;;;9.92;45.88;101737.19;5046006;28;45485;-71
2022/04/10 08:41:08;;;;;;;;;24.00;20.75;;;;;9.95;45.89;101737.22;5034987;28;45592;-71
2022/04/10 08:43:35;;;;;;;;;17.25;16.25;;;;;10.00;44.95;101730.34;5020218;28;45383;-71
2022/04/10 08:46:02;;;;;;;;;13.75;12.50;;;;;10.10;45.07;101737.53;5035432;28;45615;-70
2022/04/10 08:48:30;;;;;;;;;18.75;14.75;;;;;10.25;44.83;101744.81;5054748;28;45392;-71
2022/04/10 08:50:56;;;;;;;;;17.25;16.00;;;;;10.26;44.95;101733.47;5022576;28;45602;-71
2022/04/10 08:53:23;;;;;;;;;13.50;13.00;;;;;10.42;44.85;101739.03;5019851;28;46900;-71
2022/04/10 08:55:49;;;;;;;;;15.00;12.75;;;;;10.43;44.42;101740.81;5019054;28;45415;-71
2022/04/10 08:58:15;;;;;;;;;14.50;13.75;;;;;10.47;44.03;101738.28;5019638;28;45450;-71
2022/04/10 09:00:43;;;;;;;;;13.50;13.50;;;;;10.46;43.85;101733.00;5034278;28;45503;-72
2022/04/10 09:03:12;;;;;;;;;14.00;10.50;;;;;10.44;43.82;101729.47;5038705;28;45486;-71
2022/04/10 09:05:40;;;;;;;;;15.75;12.00;;;;;10.64;44.19;101735.97;5026373;28;45356;-70
2022/04/10 09:08:18;;;;;;;;;14.25;11.75;;;;;10.72;44.18;101733.47;5033849;28;45451;-71
2022/04/10 09:11:08;;;;;;;;;9.00;9.00;;;;;10.77;43.64;101742.28;5020050;28;46031;-71
2022/04/10 09:13:38;;;;;;;;;13.25;11.00;;;;;10.88;43.45;101745.97;5019091;28;45356;-71
2022/04/10 09:16:11;;;;;;;;;10.25;8.00;;;;;10.80;43.65;101722.25;5034461;28;45377;-71
2022/04/10 09:18:54;;;;;;;;;13.50;10.00;;;;;10.76;43.79;101712.59;5038787;28;45432;-71
2022/04/10 09:21:28;;;;;;;;;12.50;11.00;;;;;10.77;43.56;101702.97;5021888;28;45452;-71
2022/04/10 09:23:56;;;;;;;;;16.75;9.50;;;;;10.91;44.13;101714.56;5016454;28;45474;-71
2022/04/10 09:26:21;;;;;;;;;7.75;7.25;;;;;11.08;43.37;101740.16;5018411;28;45565;-70
2022/04/10 09:28:55;;;;;;;;;10.50;7.25;;;;;11.09;41.92;101739.34;5018691;28;45477;-70
2022/04/10 09:31:29;;;;;;;;;5.25;3.50;;;;;10.93;42.23;101701.50;5022377;28;47295;-71
2022/04/10 09:33:56;;;;;;;;;4.25;4.25;;;;;11.07;42.66;101702.59;5037874;28;45382;-70
2022/04/10 09:36:36;;;;;;;;;6.75;4.50;;;;;11.42;42.59;101728.47;5037411;28;45291;-70
2022/04/10 09:39:06;;;;;;;;;6.00;4.50;;;;;11.57;41.91;101722.56;5021120;28;45514;-71
2022/04/10 09:41:31;;;;;;;;;3.25;3.25;;;;;11.56;41.83;101699.81;5017934;28;45702;-70
2022/04/10 09:44:10;;;;;;;;;8.50;7.50;;;;;11.57;42.60;101701.56;5018235;28;45452;-72
2022/04/10 09:46:35;;;;;;;;;6.50;6.50;;;;;11.67;46.19;101716.56;5036575;28;46008;-75
2022/04/10 09:49:18;;;;;;;;;5.25;5.25;;;;;11.74;41.88;101705.28;5035147;28;45300;-74
2022/04/10 09:52:04;;;;;;;;;5.25;5.00;;;;;11.98;43.95;101724.84;5019260;28;45596;-73
2022/04/10 09:54:44;;;;;;;;;7.50;5.00;;;;;12.01;42.31;101707.41;5019300;28;45353;-75
2022/04/10 09:57:15;;;;;;;;;5.50;3.75;;;;;12.08;40.70;101713.63;5025461;28;47391;-73
2022/04/10 09:59:46;;;;;;;;;7.50;6.50;;;;;12.11;40.25;101725.91;5020842;28;45269;-72
2022/04/10 10:02:17;;;;;;;;;7.25;5.00;;;;;12.09;39.99;101716.22;5024735;28;45371;-73
2022/04/10 10:04:43;;;;;;;;;7.75;5.00;;;;;12.16;40.20;101725.06;5017828;28;45402;-71
2022/04/10 10:07:10;;;;;;;;;5.25;3.75;;;;;12.18;39.62;101712.84;5018957;28;45264;-72
2022/04/10 10:09:36;;;;;;;;;4.00;4.00;;;;;12.28;39.06;101727.81;5019951;28;45291;-72
2022/04/10 10:12:06;;;;;;;;;5.50;4.25;;;;;12.26;38.76;101710.28;5018806;28;45363;-71
2022/04/10 10:14:39;;;;;;;;;4.25;4.25;;;;;12.36;38.18;101708.63;5018353;28;45507;-73
2022/04/10 10:17:06;;;;;;;;;3.50;3.50;;;;;12.45;37.97;101714.84;5017291;28;45451;-72
2022/04/10 10:19:34;;;;;;;;;6.75;5.25;;;;;12.52;38.47;101718.44;5033837;28;45684;-72
2022/04/10 10:22:01;;;;;;;;;6.00;5.25;;;;;12.56;38.01;101699.22;5017364;28;46409;-72
2022/04/10 10:24:33;;;;;;;;;9.50;8.00;;;;;12.62;39.13;101695.75;5017757;28;45346;-74
2022/04/10 10:27:23;;;;;;;;;6.50;5.00;;;;;12.76;41.05;101677.47;5035388;28;45440;-74
2022/04/10 10:30:10;;;;;;;;;6.50;6.50;;;;;13.09;38.02;101708.41;5016042;28;45646;-72
2022/04/10 10:32:42;;;;;;;;;6.00;6.00;;;;;13.00;38.44;101675.00;5007724;28;45433;-73
2022/04/10 10:35:13;;;;;;;;;7.75;7.25;;;;;13.04;38.11;101654.91;5010502;28;45398;-72
2022/04/10 10:37:55;;;;;;;;;6.00;6.00;;;;;13.16;38.50;101665.47;4998429;28;45368;-72
2022/04/10 10:40:22;;;;;;;;;3.50;2.25;;;;;13.39;38.09;101672.69;4999021;28;45388;-72
2022/04/10 10:42:49;;;;;;;;;6.00;6.00;;;;;13.47;37.79;101687.63;5015376;28;46132;-73
2022/04/10 10:45:36;;;;;;;;;10.75;7.75;;;;;13.48;38.04;101675.38;5009726;28;45508;-71
2022/04/10 10:48:30;;;;;;;;;10.25;8.50;;;;;13.53;37.78;101686.78;5004194;28;45627;-72
2022/04/10 10:51:20;;;;;;;;;10.75;8.25;;;;;13.57;38.25;101681.56;5011302;28;45482;-72
2022/04/10 10:53:57;;;;;;;;;7.25;6.25;;;;;13.69;37.34;101687.72;5009727;28;46072;-72
2022/04/10 10:56:36;;;;;;;;;6.25;5.00;;;;;13.68;36.80;101668.41;4996924;28;45667;-72
2022/04/10 10:59:22;;;;;;;;;6.00;6.00;;;;;13.84;36.63;101671.13;4997226;28;45542;-72
2022/04/10 11:02:03;;;;;;;;;7.75;5.00;;;;;13.92;35.79;101678.16;5000545;28;45345;-72
2022/04/10 11:04:38;;;;;;;;;7.50;6.25;;;;;13.86;35.73;101664.97;5007551;28;46054;-73
2022/04/10 11:07:14;;;;;;;;;5.25;5.25;;;;;13.96;36.85;101669.41;5010144;28;45391;-71
2022/04/10 11:10:01;;;;;;;;;8.25;5.75;;;;;14.03;36.32;101646.59;4980537;28;45637;-72
2022/04/10 11:12:32;;;;;;;;;7.75;6.50;;;;;14.23;35.55;101657.16;5004600;28;45785;-71
2022/04/10 11:15:02;;;;;;;;;5.00;4.50;;;;;14.30;36.54;101653.66;5011168;28;46204;-72
2022/04/10 11:17:29;;;;;;;;;5.67;5.33;;;;;14.45;36.20;101652.81;4997547;28;45519;-72
2022/04/10 11:20:02;;;;;;;;;8.50;6.00;;;;;14.53;35.22;101644.91;5013628;28;45398;-71
2022/04/10 11:22:37;;;;;;;;;5.33;4.67;;;;;14.66;34.64;101645.78;5016188;28;45467;-71
2022/04/10 11:25:08;;;;;;;;;6.25;6.25;;;;;14.63;34.46;101634.38;5016195;28;45486;-71
2022/04/10 11:27:44;;;;;;;;;9.33;5.33;;;;;14.70;34.54;101644.94;5019348;28;45682;-71
2022/04/10 11:30:25;;;;;;;;;4.00;4.00;;;;;14.79;35.21;101642.28;5021245;28;45509;-73
2022/04/10 11:33:01;;;;;;;;;7.33;6.00;;;;;14.92;35.45;101632.59;5036958;28;45353;-71